createdAt,value
2022-12-07T00:01:57.900Z,10.35
2022-12-07T00:05:00.188Z,9.65
2022-12-07T00:08:02.606Z,11.20
2022-12-07T00:11:06.877Z,9.53
2022-12-07T00:14:12.905Z,10.32
2022-12-07T00:17:15.150Z,10.57
2022-12-07T00:20:17.491Z,9.88
2022-12-07T00:23:19.767Z,10.35
2022-12-07T00:26:24.221Z,11.37
2022-12-07T00:29:26.557Z,11.43
2022-12-07T00:32:28.981Z,11.40
2022-12-07T00:35:31.265Z,12.00
2022-12-07T00:38:35.355Z,13.43
2022-12-07T00:41:37.696Z,12.83
2022-12-07T00:44:40.026Z,12.73
2022-12-07T00:47:42.522Z,12.52
2022-12-07T00:50:44.967Z,13.55
2022-12-07T00:53:47.838Z,11.90
2022-12-07T00:56:50.144Z,10.73
2022-12-07T00:59:56.268Z,11.50
2022-12-07T01:02:58.704Z,11.77
2022-12-07T01:06:01.330Z,10.65
2022-12-07T01:09:04.978Z,12.27
2022-12-07T01:12:07.264Z,11.63
2022-12-07T01:15:09.969Z,11.75
2022-12-07T01:18:12.354Z,11.45
2022-12-07T01:21:25.682Z,12.60
2022-12-07T01:24:27.966Z,12.25
2022-12-07T01:27:30.255Z,12.77
2022-12-07T01:30:32.571Z,11.85
2022-12-07T01:33:37.296Z,12.63
2022-12-07T01:36:39.687Z,12.05
2022-12-07T01:39:42.743Z,12.98
2022-12-07T01:42:45.056Z,12.17
2022-12-07T01:45:47.459Z,12.77
2022-12-07T01:48:50.166Z,13.00
2022-12-07T01:51:53.949Z,13.57
2022-12-07T01:54:58.676Z,12.80
2022-12-07T01:58:00.926Z,12.37
2022-12-07T02:01:03.352Z,11.90
2022-12-07T02:04:07.073Z,12.05
2022-12-07T02:07:09.612Z,12.98
2022-12-07T02:10:22.632Z,12.60
2022-12-07T02:13:30.864Z,13.03
2022-12-07T02:16:36.174Z,13.77
2022-12-07T02:20:26.033Z,14.02
2022-12-07T02:23:43.747Z,14.07
2022-12-07T02:26:51.918Z,12.10
2022-12-07T02:30:12.505Z,13.13
2022-12-07T02:33:16.820Z,13.07
2022-12-07T02:36:26.881Z,12.57
2022-12-07T02:39:44.359Z,12.70
2022-12-07T02:42:59.709Z,12.23
2022-12-07T02:46:14.889Z,12.63
2022-12-07T02:49:17.606Z,11.82
2022-12-07T02:52:19.946Z,12.25
2022-12-07T02:55:27.268Z,13.13
2022-12-07T02:58:51.315Z,12.13
2022-12-07T03:02:12.077Z,12.17
2022-12-07T03:05:20.498Z,13.00
2022-12-07T03:08:58.021Z,11.90
2022-12-07T03:12:22.374Z,12.30
2022-12-07T03:15:31.017Z,12.07
2022-12-07T03:18:38.719Z,12.73
2022-12-07T03:21:43.396Z,11.60
2022-12-07T03:24:53.311Z,12.10
2022-12-07T03:28:03.459Z,11.55
2022-12-07T03:31:25.180Z,11.80
2022-12-07T03:34:48.629Z,10.93
2022-12-07T03:37:53.089Z,10.98
2022-12-07T03:41:04.462Z,10.50
2022-12-07T03:44:07.226Z,10.93
2022-12-07T03:47:19.846Z,12.30
2022-12-07T03:50:45.392Z,11.33
2022-12-07T03:54:03.725Z,11.43
2022-12-07T03:57:06.956Z,10.68
2022-12-07T04:00:11.006Z,11.30
2022-12-07T04:03:16.142Z,12.20
2022-12-07T04:06:18.490Z,10.60
2022-12-07T04:09:21.048Z,10.77
2022-12-07T04:12:24.253Z,12.23
2022-12-07T04:15:26.495Z,10.45
2022-12-07T04:18:28.773Z,10.57
2022-12-07T04:21:31.075Z,10.97
2022-12-07T04:24:34.105Z,11.70
2022-12-07T04:27:36.631Z,10.93
2022-12-07T04:30:38.931Z,11.40
2022-12-07T04:33:41.257Z,10.87
2022-12-07T04:36:44.047Z,10.67
2022-12-07T04:39:46.345Z,10.68
2022-12-07T04:42:48.600Z,11.30
2022-12-07T04:45:52.274Z,14.50
2022-12-07T04:48:55.191Z,12.97
2022-12-07T04:51:57.462Z,14.87
2022-12-07T04:54:59.736Z,14.32
2022-12-07T04:58:01.982Z,14.00
2022-12-07T05:01:04.747Z,11.60
2022-12-07T05:04:07.579Z,12.57
2022-12-07T05:07:09.856Z,12.33
2022-12-07T05:10:12.179Z,14.70
2022-12-07T05:13:14.437Z,12.93
2022-12-07T05:16:16.822Z,12.00
2022-12-07T05:19:19.914Z,13.40
2022-12-07T05:22:22.603Z,11.50
2022-12-07T05:25:25.093Z,12.27
2022-12-07T05:28:27.397Z,13.27
2022-12-07T05:31:29.756Z,13.73
2022-12-07T05:34:32.067Z,13.03
2022-12-07T05:37:34.335Z,12.07
2022-12-07T05:40:37.940Z,13.45
2022-12-07T05:43:40.204Z,13.38
2022-12-07T05:46:42.556Z,13.93
2022-12-07T05:49:45.906Z,12.10
2022-12-07T05:52:49.643Z,12.87
2022-12-07T05:55:53.926Z,12.02
2022-12-07T05:59:14.736Z,12.32
2022-12-07T06:02:17.745Z,12.63
2022-12-07T06:05:20.122Z,12.50
2022-12-07T06:08:22.563Z,12.53
2022-12-07T06:11:43.565Z,12.52
2022-12-07T06:14:46.353Z,12.43
2022-12-07T06:17:48.675Z,12.60
2022-12-07T06:20:50.947Z,13.93
2022-12-07T06:23:53.655Z,15.17
2022-12-07T06:26:55.955Z,13.35
2022-12-07T06:29:58.376Z,13.30
2022-12-07T06:33:00.627Z,14.90
2022-12-07T06:36:02.976Z,13.43
2022-12-07T06:39:06.550Z,13.03
2022-12-07T06:42:08.896Z,13.73
2022-12-07T06:45:11.615Z,13.48
2022-12-07T06:48:14.064Z,14.65
2022-12-07T06:51:16.617Z,14.43
2022-12-07T06:54:18.944Z,13.27
2022-12-07T06:57:22.142Z,14.75
2022-12-07T07:00:25.590Z,13.57
2022-12-07T07:03:27.883Z,16.02
2022-12-07T07:06:30.290Z,17.57
2022-12-07T07:09:32.802Z,18.37
2022-12-07T07:12:35.076Z,16.63
2022-12-07T07:15:38.820Z,16.42
2022-12-07T07:18:41.154Z,14.60
2022-12-07T07:21:43.555Z,14.07
2022-12-07T07:24:46.524Z,15.33
2022-12-07T07:27:49.031Z,14.27
2022-12-07T07:30:51.579Z,15.50
2022-12-07T07:33:53.974Z,14.65
2022-12-07T07:36:56.276Z,12.97
2022-12-07T07:39:58.813Z,13.67
2022-12-07T07:43:01.505Z,14.15
2022-12-07T07:46:04.060Z,14.68
2022-12-07T07:49:06.464Z,16.00
2022-12-07T07:52:08.746Z,23.17
2022-12-07T07:55:11.693Z,22.17
2022-12-07T07:58:13.987Z,18.27
2022-12-07T08:01:17.716Z,16.27
2022-12-07T08:04:20.444Z,16.08
2022-12-07T08:07:22.789Z,15.53
2022-12-07T08:10:25.103Z,16.77
2022-12-07T08:13:30.931Z,17.08
2022-12-07T08:16:34.165Z,16.17
2022-12-07T08:19:36.631Z,16.58
2022-12-07T08:22:38.940Z,15.93
2022-12-07T08:25:41.593Z,16.60
2022-12-07T08:28:44.490Z,15.88
2022-12-07T08:31:50.120Z,14.98
2022-12-07T08:34:53.532Z,16.10
2022-12-07T08:37:55.851Z,16.40
2022-12-07T08:40:59.508Z,16.00
2022-12-07T08:44:01.896Z,15.82
2022-12-07T08:47:06.458Z,15.88
2022-12-07T08:50:10.865Z,16.23
2022-12-07T08:53:13.188Z,17.30
2022-12-07T08:56:15.480Z,18.20
2022-12-07T08:59:19.116Z,16.23
2022-12-07T09:02:21.453Z,15.82
2022-12-07T09:05:24.226Z,15.88
2022-12-07T09:08:32.108Z,15.37
2022-12-07T09:11:34.465Z,14.37
2022-12-07T09:14:36.808Z,15.18
2022-12-07T09:17:39.187Z,13.40
2022-12-07T09:20:41.627Z,13.13
2022-12-07T09:23:44.392Z,12.60
2022-12-07T09:26:46.816Z,13.53
2022-12-07T09:29:49.129Z,13.10
2022-12-07T09:32:51.659Z,12.68
2022-12-07T09:35:54.101Z,13.20
2022-12-07T09:38:56.886Z,13.23
2022-12-07T09:42:00.260Z,13.43
2022-12-07T09:45:03.690Z,11.65
2022-12-07T09:48:06.383Z,10.70
2022-12-07T09:51:24.968Z,9.93
2022-12-07T09:54:28.104Z,8.43
2022-12-07T09:57:32.989Z,7.77
2022-12-07T10:00:35.456Z,8.30
2022-12-07T10:03:43.835Z,7.93
2022-12-07T10:06:47.068Z,8.98
2022-12-07T10:09:50.026Z,8.03
2022-12-07T10:12:58.251Z,8.17
2022-12-07T10:16:06.583Z,7.43
2022-12-07T10:19:21.115Z,7.50
2022-12-07T10:22:26.250Z,7.22
2022-12-07T10:25:35.387Z,8.67
2022-12-07T10:28:42.097Z,7.87
2022-12-07T10:31:46.681Z,11.60
2022-12-07T10:34:52.311Z,11.85
2022-12-07T10:37:56.042Z,11.95
2022-12-07T10:41:06.981Z,12.47
2022-12-07T10:44:22.723Z,11.73
2022-12-07T10:48:13.648Z,11.57
2022-12-07T10:51:45.547Z,11.65
2022-12-07T10:54:53.372Z,11.43
2022-12-07T10:58:14.269Z,10.20
2022-12-07T11:01:25.034Z,9.60
2022-12-07T11:04:56.215Z,9.80
2022-12-07T11:08:10.643Z,10.00
2022-12-07T11:11:24.864Z,10.13
2022-12-07T11:14:37.667Z,11.77
2022-12-07T11:17:50.448Z,10.47
2022-12-07T11:21:21.118Z,9.68
2022-12-07T11:24:44.773Z,10.10
2022-12-07T11:28:02.187Z,9.63
2022-12-07T11:31:07.510Z,9.77
2022-12-07T11:34:29.012Z,9.93
2022-12-07T11:37:38.275Z,9.93
2022-12-07T11:40:45.091Z,8.70
2022-12-07T11:44:25.658Z,8.88
2022-12-07T11:47:49.447Z,6.23
2022-12-07T11:50:55.956Z,5.13
2022-12-07T11:54:03.353Z,4.65
2022-12-07T11:57:20.380Z,4.95
2022-12-07T12:00:22.997Z,4.05
2022-12-07T12:03:33.063Z,5.13
2022-12-07T12:06:38.385Z,4.40
2022-12-07T12:09:53.390Z,4.85
2022-12-07T12:17:24.273Z,4.90
2022-12-07T12:20:37.991Z,4.50
2022-12-07T12:23:55.629Z,4.57
2022-12-07T12:27:04.328Z,4.82
2022-12-07T12:30:24.375Z,4.15
2022-12-07T12:33:31.362Z,4.25
2022-12-07T12:36:53.570Z,3.90
2022-12-07T12:40:16.129Z,4.57
2022-12-07T12:43:50.057Z,4.25
2022-12-07T12:46:55.613Z,4.30
2022-12-07T12:50:18.787Z,4.57
2022-12-07T12:53:25.620Z,5.10
2022-12-07T12:57:01.398Z,4.43
2022-12-07T13:00:23.219Z,4.03
2022-12-07T13:03:28.892Z,4.68
2022-12-07T13:06:36.744Z,4.10
2022-12-07T13:09:43.715Z,4.97
2022-12-07T13:13:15.182Z,5.30
2022-12-07T13:16:17.335Z,5.15
2022-12-07T13:19:44.574Z,4.82
2022-12-07T13:22:50.921Z,5.03
2022-12-07T13:26:00.840Z,4.90
2022-12-07T13:29:08.835Z,5.23
2022-12-07T13:32:27.106Z,5.00
2022-12-07T13:35:31.656Z,5.07
2022-12-07T13:38:36.564Z,5.10
2022-12-07T13:41:42.837Z,5.50
2022-12-07T13:44:45.313Z,4.70
2022-12-07T13:47:55.767Z,5.43
2022-12-07T13:50:59.430Z,5.20
2022-12-07T13:54:08.150Z,5.15
2022-12-07T13:57:10.527Z,5.70
2022-12-07T14:00:17.637Z,4.40
2022-12-07T14:03:19.915Z,4.70
2022-12-07T14:06:29.487Z,4.47
2022-12-07T14:09:31.898Z,4.50
2022-12-07T14:12:37.347Z,4.27
2022-12-07T14:15:39.889Z,4.20
2022-12-07T14:18:42.359Z,4.53
2022-12-07T14:21:44.940Z,4.57
2022-12-07T14:24:47.259Z,4.95
2022-12-07T14:27:59.459Z,4.63
2022-12-07T14:31:02.499Z,4.70
2022-12-07T14:34:04.790Z,4.82
2022-12-07T14:37:10.441Z,4.60
2022-12-07T14:40:21.528Z,5.20
2022-12-07T14:43:23.797Z,4.70
2022-12-07T14:46:26.243Z,5.20
2022-12-07T14:49:35.739Z,5.72
2022-12-07T14:56:00.633Z,7.22
2022-12-07T14:59:02.913Z,7.30
2022-12-07T15:02:06.081Z,6.93
2022-12-07T15:05:15.629Z,9.98
2022-12-07T15:08:22.392Z,5.85
2022-12-07T15:11:24.804Z,6.55
2022-12-07T15:14:27.306Z,6.07
2022-12-07T15:17:32.276Z,5.50
2022-12-07T15:20:34.873Z,5.25
2022-12-07T15:23:37.285Z,5.28
2022-12-07T15:26:40.999Z,5.70
2022-12-07T15:29:43.427Z,6.50
2022-12-07T15:32:50.447Z,6.13
2022-12-07T15:35:52.928Z,6.07
2022-12-07T15:39:13.741Z,7.13
2022-12-07T15:42:16.591Z,6.10
2022-12-07T15:45:19.541Z,6.20
2022-12-07T15:48:29.809Z,6.37
2022-12-07T15:51:32.470Z,6.20
2022-12-07T15:54:34.918Z,6.03
2022-12-07T15:57:38.486Z,6.13
2022-12-07T16:00:40.753Z,6.63
2022-12-07T16:03:43.480Z,6.50
2022-12-07T16:06:45.796Z,6.65
2022-12-07T16:09:48.908Z,6.00
2022-12-07T16:12:51.345Z,6.00
2022-12-07T16:15:53.649Z,7.20
2022-12-07T16:18:55.949Z,6.70
2022-12-07T16:21:58.588Z,6.22
2022-12-07T16:25:01.168Z,6.60
2022-12-07T16:28:03.615Z,7.30
2022-12-07T16:31:10.371Z,6.83
2022-12-07T16:34:12.663Z,6.60
2022-12-07T16:37:14.959Z,7.05
2022-12-07T16:40:17.376Z,6.78
2022-12-07T16:43:19.857Z,8.38
2022-12-07T16:46:22.298Z,8.53
2022-12-07T16:49:25.351Z,8.33
2022-12-07T16:52:27.628Z,8.25
2022-12-07T16:55:29.894Z,7.50
2022-12-07T16:58:32.594Z,7.28
2022-12-07T17:01:35.631Z,7.70
2022-12-07T17:04:40.632Z,7.40
2022-12-07T17:07:43.037Z,7.38
2022-12-07T17:10:46.256Z,6.97
2022-12-07T17:14:07.160Z,7.03
2022-12-07T17:17:09.502Z,8.60
2022-12-07T17:20:12.411Z,8.70
2022-12-07T17:23:14.720Z,8.63
2022-12-07T17:26:20.033Z,8.90
2022-12-07T17:29:22.953Z,8.52
2022-12-07T17:32:25.233Z,9.07
2022-12-07T17:35:27.511Z,8.80
2022-12-07T17:38:29.873Z,8.70
2022-12-07T17:41:50.697Z,8.18
2022-12-07T17:44:53.068Z,9.00
2022-12-07T17:47:55.389Z,8.63
2022-12-07T17:51:19.317Z,8.87
2022-12-07T17:54:22.221Z,8.85
2022-12-07T17:57:24.630Z,9.77
2022-12-07T18:00:26.972Z,9.20
2022-12-07T18:03:29.380Z,9.80
2022-12-07T18:06:32.493Z,8.90
2022-12-07T18:09:35.297Z,9.73
2022-12-07T18:12:40.570Z,9.93
2022-12-07T18:15:43.132Z,10.18
2022-12-07T18:18:52.306Z,12.27
2022-12-07T18:21:58.165Z,13.17
2022-12-07T18:25:00.844Z,15.82
2022-12-07T18:28:03.622Z,13.73
2022-12-07T18:31:15.322Z,15.55
2022-12-07T18:34:19.547Z,15.67
2022-12-07T18:37:24.069Z,14.43
2022-12-07T18:40:26.417Z,14.13
2022-12-07T18:43:29.477Z,14.95
2022-12-07T18:46:32.752Z,28.77
2022-12-07T18:49:35.129Z,31.80
2022-12-07T18:52:37.446Z,27.33
2022-12-07T18:55:40.300Z,24.67
2022-12-07T18:59:03.361Z,18.70
2022-12-07T19:02:05.733Z,16.77
2022-12-07T19:05:08.044Z,17.67
2022-12-07T19:08:10.569Z,17.73
2022-12-07T19:11:38.754Z,17.08
2022-12-07T19:14:41.365Z,17.33
2022-12-07T19:17:43.940Z,17.83
2022-12-07T19:20:46.248Z,17.47
2022-12-07T19:23:48.611Z,17.20
2022-12-07T19:26:52.160Z,19.70
2022-12-07T19:29:54.532Z,19.48
2022-12-07T19:32:56.810Z,19.10
2022-12-07T19:35:59.196Z,19.37
2022-12-07T19:39:01.544Z,19.07
2022-12-07T19:42:04.632Z,20.48
2022-12-07T19:45:07.443Z,20.38
2022-12-07T19:48:09.653Z,20.00
2022-12-07T19:51:11.890Z,19.83
2022-12-07T19:54:16.229Z,20.60
2022-12-07T19:57:18.647Z,19.77
2022-12-07T20:00:21.572Z,19.30
2022-12-07T20:03:23.981Z,20.67
2022-12-07T20:06:27.028Z,19.90
2022-12-07T20:09:29.414Z,19.23
2022-12-07T20:12:50.500Z,19.27
2022-12-07T20:16:01.747Z,18.88
2022-12-07T20:19:14.516Z,20.25
2022-12-07T20:22:16.852Z,18.77
2022-12-07T20:25:20.139Z,18.57
2022-12-07T20:28:22.417Z,20.52
2022-12-07T20:31:24.721Z,19.00
2022-12-07T20:34:27.315Z,18.48
2022-12-07T20:37:29.653Z,19.40
2022-12-07T20:40:31.969Z,19.57
2022-12-07T20:43:35.167Z,19.92
2022-12-07T20:46:37.514Z,20.85
2022-12-07T20:49:39.885Z,19.98
2022-12-07T20:52:42.199Z,19.57
2022-12-07T20:55:45.024Z,19.37
2022-12-07T20:58:47.468Z,19.15
2022-12-07T21:01:49.832Z,19.48
2022-12-07T21:04:52.356Z,20.27
2022-12-07T21:07:54.638Z,18.87
2022-12-07T21:10:56.958Z,19.23
2022-12-07T21:13:59.303Z,19.98
2022-12-07T21:17:01.586Z,20.00
2022-12-07T21:20:04.322Z,19.85
2022-12-07T21:23:06.631Z,19.50
2022-12-07T21:26:17.115Z,20.30
2022-12-07T21:29:34.493Z,20.98
2022-12-07T21:32:41.747Z,20.15
2022-12-07T21:35:43.960Z,21.10
2022-12-07T21:38:47.040Z,20.80
2022-12-07T21:41:49.383Z,20.63
2022-12-07T21:44:51.823Z,19.17
2022-12-07T21:47:54.245Z,20.15
2022-12-07T21:50:56.668Z,16.70
2022-12-07T21:54:00.193Z,17.10
2022-12-07T21:57:02.592Z,19.03
2022-12-07T22:00:06.751Z,19.95
2022-12-07T22:03:12.307Z,24.75
2022-12-07T22:06:16.445Z,25.33
2022-12-07T22:09:19.381Z,22.43
2022-12-07T22:12:21.673Z,25.67
2022-12-07T22:15:24.658Z,23.33
2022-12-07T22:18:26.965Z,21.58
2022-12-07T22:21:30.163Z,19.70
2022-12-07T22:24:32.458Z,18.33
2022-12-07T22:27:34.775Z,19.60
2022-12-07T22:30:39.158Z,17.40
2022-12-07T22:33:41.782Z,20.15
2022-12-07T22:36:44.767Z,19.67
2022-12-07T22:39:47.216Z,20.77
2022-12-07T22:42:49.434Z,19.60
2022-12-07T22:45:59.678Z,27.85
2022-12-07T22:49:02.291Z,27.65
2022-12-07T22:52:04.903Z,21.90
2022-12-07T22:55:08.378Z,21.20
2022-12-07T22:58:10.780Z,19.70
2022-12-07T23:01:27.912Z,19.88
2022-12-07T23:04:30.394Z,17.42
2022-12-07T23:07:32.807Z,20.67
2022-12-07T23:10:35.074Z,21.67
2022-12-07T23:13:38.177Z,20.13
2022-12-07T23:16:40.893Z,19.35
2022-12-07T23:19:43.376Z,18.30
2022-12-07T23:22:45.812Z,20.35
2022-12-07T23:25:48.071Z,19.33
2022-12-07T23:28:50.406Z,20.77
2022-12-07T23:31:53.025Z,19.90
2022-12-07T23:34:55.332Z,17.73
2022-12-07T23:37:57.793Z,18.50
2022-12-07T23:41:00.083Z,20.13
2022-12-07T23:44:02.650Z,19.50
2022-12-07T23:47:05.261Z,20.02
2022-12-07T23:50:08.374Z,20.08
2022-12-07T23:53:10.642Z,19.88
2022-12-07T23:56:15.177Z,20.10
2022-12-07T23:59:17.822Z,22.50
